createdAt,value
2023-05-01T00:00:22.601Z,98105.22
2023-05-01T00:02:51.455Z,98095.78
2023-05-01T00:05:20.252Z,98071.38
2023-05-01T00:07:49.278Z,98097.63
2023-05-01T00:10:19.778Z,98088.34
2023-05-01T00:12:48.773Z,98097.69
2023-05-01T00:15:18.797Z,98095.09
2023-05-01T00:17:47.406Z,98098.53
2023-05-01T00:20:19.508Z,98089.28
2023-05-01T00:22:48.659Z,98088.50
2023-05-01T00:25:18.259Z,98080.72
2023-05-01T00:27:47.781Z,98079.06
2023-05-01T00:30:18.818Z,98060.44
2023-05-01T00:32:47.681Z,98074.03
2023-05-01T00:35:17.345Z,98079.09
2023-05-01T00:37:46.359Z,98067.91
2023-05-01T00:40:15.125Z,98070.38
2023-05-01T00:42:43.975Z,98054.69
2023-05-01T00:45:13.597Z,98057.59
2023-05-01T00:47:44.393Z,98053.19
2023-05-01T00:50:14.277Z,98052.34
2023-05-01T00:52:43.086Z,98050.00
2023-05-01T00:55:12.692Z,98047.34
2023-05-01T00:57:41.593Z,98039.75
2023-05-01T01:00:13.274Z,98044.88
2023-05-01T01:02:43.649Z,98044.88
2023-05-01T01:05:12.622Z,98036.28
2023-05-01T01:07:51.301Z,98028.63
2023-05-01T01:10:32.411Z,98033.06
2023-05-01T01:13:09.661Z,98035.34
2023-05-01T01:15:47.254Z,98026.91
2023-05-01T01:18:23.333Z,98030.47
2023-05-01T01:20:59.067Z,98015.31
2023-05-01T01:23:44.634Z,98021.16
2023-05-01T01:26:21.778Z,98013.75
2023-05-01T01:29:16.028Z,98028.19
2023-05-01T01:32:02.112Z,98031.78
2023-05-01T01:34:35.680Z,97998.81
2023-05-01T01:37:09.644Z,98010.47
2023-05-01T01:39:45.404Z,98017.38
2023-05-01T01:42:21.237Z,98012.31
2023-05-01T01:44:53.153Z,98014.81
2023-05-01T01:47:23.432Z,98015.00
2023-05-01T01:49:55.866Z,98009.09
2023-05-01T01:52:26.408Z,98010.09
2023-05-01T01:54:58.859Z,98012.66
2023-05-01T01:57:28.706Z,98013.66
2023-05-01T01:59:57.576Z,98005.84
2023-05-01T02:02:27.802Z,98013.63
2023-05-01T02:04:59.737Z,98011.84
2023-05-01T02:07:30.115Z,97992.31
2023-05-01T02:09:59.707Z,98010.03
2023-05-01T02:12:29.200Z,98004.97
2023-05-01T02:15:00.151Z,97988.09
2023-05-01T02:17:30.241Z,97989.66
2023-05-01T02:20:01.217Z,97998.38
2023-05-01T02:22:31.245Z,97990.81
2023-05-01T02:25:02.253Z,97994.09
2023-05-01T02:27:34.141Z,97990.69
2023-05-01T02:30:02.729Z,97981.34
2023-05-01T02:32:32.295Z,97970.47
2023-05-01T02:35:01.872Z,97989.97
2023-05-01T02:37:31.325Z,97983.97
2023-05-01T02:40:02.141Z,97978.03
2023-05-01T02:42:31.548Z,97979.03
2023-05-01T02:45:04.225Z,97982.59
2023-05-01T02:47:36.586Z,97975.81
2023-05-01T02:50:09.769Z,97974.97
2023-05-01T02:52:39.472Z,97971.53
2023-05-01T02:55:09.116Z,97969.91
2023-05-01T02:57:37.772Z,97975.06
2023-05-01T03:00:09.513Z,97969.22
2023-05-01T03:02:38.616Z,97967.72
2023-05-01T03:05:09.654Z,97973.72
2023-05-01T03:07:38.471Z,97978.09
2023-05-01T03:10:08.544Z,97978.00
2023-05-01T03:12:36.669Z,97973.81
2023-05-01T03:15:06.490Z,97982.38
2023-05-01T03:17:35.171Z,97982.44
2023-05-01T03:20:06.745Z,97979.03
2023-05-01T03:22:36.372Z,97969.78
2023-05-01T03:25:05.809Z,97979.22
2023-05-01T03:27:36.387Z,97960.47
2023-05-01T03:30:05.304Z,97967.31
2023-05-01T03:32:33.509Z,97966.47
2023-05-01T03:35:01.827Z,97953.66
2023-05-01T03:37:30.625Z,97956.00
2023-05-01T03:40:00.097Z,97961.09
2023-05-01T03:42:28.271Z,97951.59
2023-05-01T03:44:56.615Z,97950.75
2023-05-01T03:47:25.140Z,97949.81
2023-05-01T03:49:53.867Z,97946.53
2023-05-01T03:52:22.333Z,97942.25
2023-05-01T03:54:51.222Z,97939.94
2023-05-01T03:57:23.409Z,97939.88
2023-05-01T03:59:52.183Z,97935.75
2023-05-01T04:02:20.434Z,97928.91
2023-05-01T04:04:48.621Z,97931.41
2023-05-01T04:07:17.117Z,97938.31
2023-05-01T04:09:45.296Z,97935.84
2023-05-01T04:12:13.594Z,97940.81
2023-05-01T04:14:44.974Z,97939.88
2023-05-01T04:17:13.097Z,97927.22
2023-05-01T04:19:41.578Z,97933.19
2023-05-01T04:22:10.049Z,97933.97
2023-05-01T04:24:38.548Z,97941.50
2023-05-01T04:27:07.560Z,97938.09
2023-05-01T04:29:36.219Z,97931.22
2023-05-01T04:32:06.413Z,97934.50
2023-05-01T04:34:34.803Z,97933.56
2023-05-01T04:37:03.770Z,97930.94
2023-05-01T04:39:32.282Z,97937.66
2023-05-01T04:42:00.292Z,97940.06
2023-05-01T04:44:28.372Z,97943.53
2023-05-01T04:46:56.900Z,97926.63
2023-05-01T04:49:26.755Z,97945.94
2023-05-01T04:51:54.952Z,97945.06
2023-05-01T04:54:23.749Z,97933.03
2023-05-01T04:56:52.613Z,97931.25
2023-05-01T04:59:20.638Z,97931.63
2023-05-01T05:01:48.890Z,97938.31
2023-05-01T05:04:17.384Z,97923.94
2023-05-01T05:06:46.994Z,97923.69
2023-05-01T05:09:17.495Z,97927.72
2023-05-01T05:11:48.804Z,97922.38
2023-05-01T05:14:16.990Z,97913.81
2023-05-01T05:16:45.477Z,97921.53
2023-05-01T05:19:14.453Z,97908.13
2023-05-01T05:21:42.647Z,97916.09
2023-05-01T05:24:12.405Z,97912.53
2023-05-01T05:26:40.913Z,97918.38
2023-05-01T05:29:09.130Z,97918.38
2023-05-01T05:31:37.754Z,97920.88
2023-05-01T05:34:06.247Z,97929.28
2023-05-01T05:36:35.603Z,97922.19
2023-05-01T05:39:04.290Z,97913.50
2023-05-01T05:41:34.736Z,97914.88
2023-05-01T05:44:03.355Z,97903.44
2023-05-01T05:46:31.940Z,97908.81
2023-05-01T05:49:00.593Z,97904.41
2023-05-01T05:51:29.106Z,97906.75
2023-05-01T05:53:57.471Z,97906.50
2023-05-01T05:56:25.891Z,97911.38
2023-05-01T05:58:56.117Z,97899.69
2023-05-01T06:01:24.358Z,97893.53
2023-05-01T06:03:52.933Z,97910.09
2023-05-01T06:06:22.599Z,97901.63
2023-05-01T06:08:50.988Z,97899.81
2023-05-01T06:11:19.586Z,97877.88
2023-05-01T06:13:48.618Z,97896.47
2023-05-01T06:16:18.497Z,97895.13
2023-05-01T06:18:47.313Z,97886.44
2023-05-01T06:21:16.056Z,97888.78
2023-05-01T06:23:44.390Z,97887.44
2023-05-01T06:26:12.976Z,97884.22
2023-05-01T06:28:42.283Z,97890.22
2023-05-01T06:31:10.805Z,97887.97
2023-05-01T06:33:40.803Z,97879.72
2023-05-01T06:36:09.249Z,97881.97
2023-05-01T06:38:37.421Z,97874.28
2023-05-01T06:41:07.116Z,97883.84
2023-05-01T06:43:35.308Z,97870.34
2023-05-01T06:46:03.382Z,97871.88
2023-05-01T06:48:31.704Z,97868.03
2023-05-01T06:51:01.319Z,97855.16
2023-05-01T06:53:29.617Z,97876.56
2023-05-01T06:55:58.024Z,97869.91
2023-05-01T06:58:26.370Z,97866.91
2023-05-01T07:00:55.525Z,97869.56
2023-05-01T07:03:24.415Z,97872.66
2023-05-01T07:05:52.554Z,97869.72
2023-05-01T07:08:22.728Z,97873.00
2023-05-01T07:10:50.809Z,97870.66
2023-05-01T07:13:19.596Z,97862.41
2023-05-01T07:15:49.137Z,97862.00
2023-05-01T07:18:17.429Z,97870.97
2023-05-01T07:20:46.160Z,97866.81
2023-05-01T07:23:14.746Z,97861.38
2023-05-01T07:25:46.458Z,97858.25
2023-05-01T07:28:15.779Z,97852.84
2023-05-01T07:30:44.070Z,97844.63
2023-05-01T07:33:12.187Z,97840.72
2023-05-01T07:35:40.668Z,97851.59
2023-05-01T07:38:09.074Z,97834.19
2023-05-01T07:40:38.948Z,97837.28
2023-05-01T07:43:11.312Z,97832.06
2023-05-01T07:45:39.706Z,97832.75
2023-05-01T07:48:08.250Z,97827.56
2023-05-01T07:50:36.548Z,97834.16
2023-05-01T07:53:04.883Z,97825.63
2023-05-01T07:55:33.723Z,97825.09
2023-05-01T07:58:02.070Z,97826.03
2023-05-01T08:00:31.959Z,97831.19
2023-05-01T08:03:00.215Z,97826.84
2023-05-01T08:05:28.709Z,97827.28
2023-05-01T08:07:56.972Z,97818.91
2023-05-01T08:10:26.244Z,97810.38
2023-05-01T08:12:54.390Z,97811.66
2023-05-01T08:15:22.829Z,97810.22
2023-05-01T08:17:52.354Z,97802.72
2023-05-01T08:20:20.885Z,97802.00
2023-05-01T08:22:49.122Z,97812.91
2023-05-01T08:25:17.670Z,97802.34
2023-05-01T08:27:45.720Z,97798.38
2023-05-01T08:30:14.098Z,97795.19
2023-05-01T08:32:42.536Z,97802.88
2023-05-01T08:35:12.543Z,97812.81
2023-05-01T08:37:40.806Z,97798.63
2023-05-01T08:40:10.270Z,97800.81
2023-05-01T08:42:39.362Z,97793.88
2023-05-01T08:45:10.266Z,97801.59
2023-05-01T08:47:39.576Z,97803.13
2023-05-01T08:50:13.144Z,97797.28
2023-05-01T08:52:43.884Z,97797.28
2023-05-01T08:55:15.227Z,97794.06
2023-05-01T08:57:46.905Z,97806.22
2023-05-01T09:00:20.060Z,97803.22
2023-05-01T09:02:50.008Z,97799.75
2023-05-01T09:05:21.544Z,97812.09
2023-05-01T09:07:50.342Z,97799.63
2023-05-01T09:10:19.677Z,97819.81
2023-05-01T09:12:55.396Z,97796.84
2023-05-01T09:15:24.328Z,97811.38
2023-05-01T09:17:52.700Z,97808.38
2023-05-01T09:20:23.186Z,97804.81
2023-05-01T09:22:52.146Z,97806.91
2023-05-01T09:25:20.792Z,97812.59
2023-05-01T09:27:49.574Z,97805.56
2023-05-01T09:30:32.057Z,97810.81
2023-05-01T09:33:11.146Z,97806.81
2023-05-01T09:35:52.000Z,97807.38
2023-05-01T09:38:21.798Z,97800.66
2023-05-01T09:40:50.307Z,97803.09
2023-05-01T09:43:27.881Z,97811.41
2023-05-01T09:46:07.438Z,97805.34
2023-05-01T09:48:37.653Z,97805.81
2023-05-01T09:51:23.938Z,97808.44
2023-05-01T09:53:52.854Z,97797.59
2023-05-01T09:56:21.997Z,97809.22
2023-05-01T09:58:52.415Z,97807.03
2023-05-01T10:01:21.953Z,97822.19
2023-05-01T10:03:55.495Z,97807.22
2023-05-01T10:06:31.987Z,97799.44
2023-05-01T10:09:00.390Z,97802.69
2023-05-01T10:11:28.630Z,97812.25
2023-05-01T10:14:10.135Z,97807.19
2023-05-01T10:16:39.787Z,97800.19
2023-05-01T10:19:08.304Z,97809.00
2023-05-01T10:21:38.433Z,97810.00
2023-05-01T10:24:08.362Z,97812.94
2023-05-01T10:26:37.858Z,97828.69
2023-05-01T10:29:06.192Z,97825.13
2023-05-01T10:31:35.791Z,97829.59
2023-05-01T10:34:05.229Z,97825.09
2023-05-01T10:36:41.034Z,97833.53
2023-05-01T10:39:32.863Z,97832.69
2023-05-01T10:42:06.098Z,97842.50
2023-05-01T10:44:36.033Z,97846.63
2023-05-01T10:47:41.610Z,97845.41
2023-05-01T10:50:11.217Z,97844.28
2023-05-01T10:53:16.716Z,97852.41
2023-05-01T10:55:47.562Z,97861.50
2023-05-01T10:58:40.901Z,97863.56
2023-05-01T11:01:30.479Z,97865.78
2023-05-01T11:04:00.994Z,97869.84
2023-05-01T11:06:29.482Z,97867.72
2023-05-01T11:08:58.833Z,97873.16
2023-05-01T11:11:54.650Z,97879.63
2023-05-01T11:14:22.877Z,97878.78
2023-05-01T11:16:50.952Z,97883.06
2023-05-01T11:19:51.160Z,97874.09
2023-05-01T11:22:19.602Z,97877.53
2023-05-01T11:24:48.127Z,97874.31
2023-05-01T11:27:18.035Z,97875.13
2023-05-01T11:29:48.693Z,97885.56
2023-05-01T11:32:21.872Z,97877.09
2023-05-01T11:34:52.544Z,97883.66
2023-05-01T11:37:21.285Z,97870.72
2023-05-01T11:39:50.947Z,97884.81
2023-05-01T11:42:23.694Z,97871.78
2023-05-01T11:45:11.044Z,97872.00
2023-05-01T11:47:39.653Z,97866.47
2023-05-01T11:50:09.501Z,97868.84
2023-05-01T11:52:46.059Z,97872.44
2023-05-01T11:55:14.690Z,97875.31
2023-05-01T11:57:59.567Z,97858.44
2023-05-01T12:00:30.123Z,97856.03
2023-05-01T12:03:00.543Z,97866.88
2023-05-01T12:05:32.227Z,97863.88
2023-05-01T12:08:14.723Z,97867.78
2023-05-01T12:10:44.783Z,97863.09
2023-05-01T12:13:15.318Z,97867.09
2023-05-01T12:15:45.353Z,97866.97
2023-05-01T12:18:17.511Z,97868.34
2023-05-01T12:20:48.207Z,97865.19
2023-05-01T12:23:17.456Z,97863.00
2023-05-01T12:25:47.084Z,97862.38
2023-05-01T12:28:20.735Z,97849.72
2023-05-01T12:30:50.833Z,97866.81
2023-05-01T12:33:21.408Z,97851.63
2023-05-01T12:35:51.978Z,97863.75
2023-05-01T12:38:22.095Z,97859.03
2023-05-01T12:40:55.987Z,97853.97
2023-05-01T12:43:33.744Z,97857.06
2023-05-01T12:46:03.484Z,97855.75
2023-05-01T12:48:33.683Z,97849.13
2023-05-01T12:51:03.760Z,97854.63
2023-05-01T12:53:32.020Z,97856.03
2023-05-01T12:56:01.447Z,97855.25
2023-05-01T12:58:38.558Z,97841.28
2023-05-01T13:01:07.843Z,97849.94
2023-05-01T13:03:40.180Z,97846.66
2023-05-01T13:06:09.593Z,97838.28
2023-05-01T13:08:40.265Z,97844.25
2023-05-01T13:11:13.395Z,97828.88
2023-05-01T13:13:45.281Z,97843.44
2023-05-01T13:16:16.710Z,97842.50
2023-05-01T13:18:47.224Z,97829.63
2023-05-01T13:21:17.623Z,97828.59
2023-05-01T13:23:54.511Z,97821.34
2023-05-01T13:26:29.176Z,97834.03
2023-05-01T13:29:00.161Z,97828.22
2023-05-01T13:31:29.108Z,97806.19
2023-05-01T13:33:59.858Z,97836.25
2023-05-01T13:36:33.529Z,97835.22
2023-05-01T13:39:02.127Z,97843.44
2023-05-01T13:41:31.500Z,97825.81
2023-05-01T13:44:01.456Z,97839.16
2023-05-01T13:46:31.101Z,97839.94
2023-05-01T13:49:05.381Z,97836.03
2023-05-01T13:51:36.759Z,97831.97
2023-05-01T13:54:07.816Z,97824.56
2023-05-01T13:56:37.622Z,97829.91
2023-05-01T13:59:08.072Z,97823.69
2023-05-01T14:01:43.236Z,97833.28
2023-05-01T14:04:12.494Z,97823.69
2023-05-01T14:06:44.542Z,97826.31
2023-05-01T14:09:13.251Z,97831.03
2023-05-01T14:11:48.341Z,97826.50
2023-05-01T14:14:20.016Z,97831.44
2023-05-01T14:16:49.548Z,97824.53
2023-05-01T14:19:18.731Z,97814.38
2023-05-01T14:21:47.082Z,97822.63
2023-05-01T14:24:18.440Z,97833.44
2023-05-01T14:26:49.170Z,97822.44
2023-05-01T14:29:25.249Z,97820.75
2023-05-01T14:31:55.714Z,97809.69
2023-05-01T14:34:24.575Z,97824.47
2023-05-01T14:36:52.850Z,97823.22
2023-05-01T14:39:21.232Z,97817.34
2023-05-01T14:41:49.811Z,97821.66
2023-05-01T14:44:23.318Z,97823.31
2023-05-01T14:46:52.126Z,97828.56
2023-05-01T14:49:22.146Z,97829.19
2023-05-01T14:51:50.664Z,97819.09
2023-05-01T14:54:19.459Z,97823.69
2023-05-01T14:56:49.454Z,97822.09
2023-05-01T14:59:17.821Z,97833.16
2023-05-01T15:01:47.280Z,97833.81
2023-05-01T15:04:15.725Z,97830.34
2023-05-01T15:06:44.560Z,97824.63
2023-05-01T15:09:12.920Z,97820.59
2023-05-01T15:11:41.424Z,97818.53
2023-05-01T15:14:09.467Z,97819.63
2023-05-01T15:16:37.858Z,97810.28
2023-05-01T15:19:07.640Z,97811.59
2023-05-01T15:21:36.289Z,97820.16
2023-05-01T15:24:04.845Z,97810.84
2023-05-01T15:26:33.461Z,97811.78
2023-05-01T15:29:02.424Z,97812.84
2023-05-01T15:31:32.156Z,97813.56
2023-05-01T15:34:02.278Z,97816.78
2023-05-01T15:36:32.939Z,97815.34
2023-05-01T15:39:01.359Z,97812.47
2023-05-01T15:41:30.034Z,97816.91
2023-05-01T15:43:58.635Z,97817.28
2023-05-01T15:46:27.565Z,97820.28
2023-05-01T15:48:55.994Z,97812.00
2023-05-01T15:51:24.393Z,97829.81
2023-05-01T15:53:54.458Z,97821.16
2023-05-01T15:56:23.006Z,97825.47
2023-05-01T15:58:51.877Z,97825.03
2023-05-01T16:01:20.354Z,97815.91
2023-05-01T16:03:50.898Z,97828.28
2023-05-01T16:06:19.695Z,97820.91
2023-05-01T16:08:48.060Z,97824.66
2023-05-01T16:11:18.682Z,97828.97
2023-05-01T16:13:47.897Z,97831.44
2023-05-01T16:16:23.723Z,97824.22
2023-05-01T16:18:57.140Z,97823.69
2023-05-01T16:21:26.848Z,97823.94
2023-05-01T16:23:57.501Z,97817.06
2023-05-01T16:26:29.186Z,97820.50
2023-05-01T16:29:01.457Z,97828.84
2023-05-01T16:31:36.216Z,97825.47
2023-05-01T16:34:07.495Z,97816.28
2023-05-01T16:36:37.921Z,97810.91
2023-05-01T16:39:09.586Z,97817.19
2023-05-01T16:41:46.256Z,97824.41
2023-05-01T16:44:16.396Z,97821.19
2023-05-01T16:46:47.656Z,97822.84
2023-05-01T16:49:18.792Z,97816.16
2023-05-01T16:51:47.694Z,97816.16
2023-05-01T16:54:16.489Z,97820.16
2023-05-01T16:56:47.038Z,97823.63
2023-05-01T16:59:16.003Z,97816.03
2023-05-01T17:01:44.255Z,97812.75
2023-05-01T17:04:13.104Z,97821.13
2023-05-01T17:06:42.291Z,97816.78
2023-05-01T17:09:11.257Z,97811.91
2023-05-01T17:11:40.308Z,97805.78
2023-05-01T17:14:10.374Z,97817.81
2023-05-01T17:16:39.946Z,97830.34
2023-05-01T17:19:10.174Z,97820.31
2023-05-01T17:21:38.607Z,97825.28
2023-05-01T17:24:07.304Z,97827.44
2023-05-01T17:26:35.914Z,97832.78
2023-05-01T17:29:06.193Z,97827.06
2023-05-01T17:31:36.568Z,97829.31
2023-05-01T17:34:05.242Z,97841.75
2023-05-01T17:36:34.047Z,97828.09
2023-05-01T17:39:04.287Z,97820.56
2023-05-01T17:41:33.345Z,97836.34
2023-05-01T17:44:02.670Z,97836.69
2023-05-01T17:46:31.827Z,97832.88
2023-05-01T17:49:01.741Z,97837.75
2023-05-01T17:51:30.572Z,97843.59
2023-05-01T17:53:59.660Z,97837.66
2023-05-01T17:56:28.846Z,97837.16
2023-05-01T17:58:57.151Z,97830.53
2023-05-01T18:01:26.051Z,97846.66
2023-05-01T18:03:54.858Z,97838.41
2023-05-01T18:06:25.150Z,97841.19
2023-05-01T18:08:54.999Z,97850.03
2023-05-01T18:11:24.371Z,97854.63
2023-05-01T18:13:52.668Z,97850.81
2023-05-01T18:16:23.366Z,97863.72
2023-05-01T18:18:53.356Z,97857.94
2023-05-01T18:21:22.485Z,97864.22
2023-05-01T18:23:52.504Z,97873.78
2023-05-01T18:26:22.221Z,97866.31
2023-05-01T18:28:50.851Z,97845.19
2023-05-01T18:31:19.606Z,97872.50
2023-05-01T18:33:48.812Z,97881.25
2023-05-01T18:36:17.545Z,97873.69
2023-05-01T18:38:46.172Z,97891.84
2023-05-01T18:41:16.691Z,97883.47
2023-05-01T18:43:45.434Z,97893.75
2023-05-01T18:46:15.038Z,97899.00
2023-05-01T18:48:43.761Z,97896.31
2023-05-01T18:51:13.089Z,97904.22
2023-05-01T18:53:41.508Z,97901.75
2023-05-01T18:56:11.448Z,97913.59
2023-05-01T18:58:42.487Z,97914.63
2023-05-01T19:01:11.280Z,97933.47
2023-05-01T19:03:41.368Z,97937.03
2023-05-01T19:06:11.060Z,97938.69
2023-05-01T19:08:39.969Z,97925.91
2023-05-01T19:11:08.759Z,97937.81
2023-05-01T19:13:38.987Z,97941.28
2023-05-01T19:16:09.463Z,97929.56
2023-05-01T19:18:39.537Z,97951.88
2023-05-01T19:21:08.949Z,97946.94
2023-05-01T19:23:38.134Z,97955.72
2023-05-01T19:26:08.049Z,97948.09
2023-05-01T19:28:38.603Z,97957.72
2023-05-01T19:31:09.532Z,97937.63
2023-05-01T19:33:38.401Z,97958.19
2023-05-01T19:36:07.227Z,97959.19
2023-05-01T19:38:37.630Z,97945.81
2023-05-01T19:41:06.499Z,97961.94
2023-05-01T19:43:35.651Z,97958.75
2023-05-01T19:46:04.933Z,97955.44
2023-05-01T19:48:35.508Z,97964.97
2023-05-01T19:51:04.435Z,97973.69
2023-05-01T19:53:34.209Z,97972.94
2023-05-01T19:56:03.190Z,97966.25
2023-05-01T19:58:32.415Z,97967.19
2023-05-01T20:01:02.778Z,97965.66
2023-05-01T20:03:31.720Z,97970.88
2023-05-01T20:06:01.739Z,97979.44
2023-05-01T20:08:30.350Z,97979.41
2023-05-01T20:10:58.633Z,97978.66
2023-05-01T20:13:27.512Z,97977.06
2023-05-01T20:15:56.406Z,97994.31
2023-05-01T20:18:24.902Z,97985.00
2023-05-01T20:20:53.523Z,97998.81
2023-05-01T20:23:24.270Z,98002.44
2023-05-01T20:25:53.682Z,97992.44
2023-05-01T20:28:24.048Z,98001.03
2023-05-01T20:30:52.799Z,98009.72
2023-05-01T20:33:21.005Z,98004.63
2023-05-01T20:35:50.082Z,98004.72
2023-05-01T20:38:19.949Z,98016.72
2023-05-01T20:40:49.860Z,98016.72
2023-05-01T20:43:18.546Z,98013.44
2023-05-01T20:45:46.948Z,98013.31
2023-05-01T20:48:15.463Z,98003.16
2023-05-01T20:50:45.687Z,98014.13
2023-05-01T20:53:14.243Z,98015.88
2023-05-01T20:55:42.521Z,98017.63
2023-05-01T20:58:12.094Z,98025.25
2023-05-01T21:00:40.725Z,98023.56
2023-05-01T21:03:09.925Z,98022.81
2023-05-01T21:05:38.140Z,98020.38
2023-05-01T21:08:07.021Z,98013.63
2023-05-01T21:10:36.814Z,98026.47
2023-05-01T21:13:06.144Z,98023.06
2023-05-01T21:15:36.717Z,98029.22
2023-05-01T21:18:05.437Z,98032.50
2023-05-01T21:20:36.739Z,98040.91
2023-05-01T21:23:06.207Z,98041.94
2023-05-01T21:25:34.750Z,98039.56
2023-05-01T21:28:06.028Z,98043.19
2023-05-01T21:30:38.040Z,98044.19
2023-05-01T21:33:08.270Z,98029.03
2023-05-01T21:35:37.055Z,98037.63
2023-05-01T21:38:05.456Z,98043.66
2023-05-01T21:40:39.050Z,98054.81
2023-05-01T21:43:08.222Z,98032.84
2023-05-01T21:45:40.988Z,98048.94
2023-05-01T21:48:10.096Z,98064.13
2023-05-01T21:50:40.745Z,98064.13
2023-05-01T21:53:09.282Z,98061.56
2023-05-01T21:55:38.096Z,98064.13
2023-05-01T21:58:07.531Z,98060.06
2023-05-01T22:00:36.287Z,98062.63
2023-05-01T22:03:09.202Z,98050.84
2023-05-01T22:05:41.115Z,98054.31
2023-05-01T22:08:09.473Z,98066.34
2023-05-01T22:10:37.859Z,98060.50
2023-05-01T22:13:06.621Z,98063.00
2023-05-01T22:15:34.839Z,98069.97
2023-05-01T22:18:03.672Z,98063.25
2023-05-01T22:20:33.513Z,98074.41
2023-05-01T22:23:02.053Z,98066.81
2023-05-01T22:25:30.069Z,98069.53
2023-05-01T22:28:00.527Z,98068.75
2023-05-01T22:30:28.718Z,98077.31
2023-05-01T22:32:57.471Z,98079.94
2023-05-01T22:35:26.114Z,98081.66
2023-05-01T22:37:55.878Z,98081.72
2023-05-01T22:40:24.337Z,98080.88
2023-05-01T22:42:52.595Z,98086.09
2023-05-01T22:45:20.993Z,98082.69
2023-05-01T22:47:49.492Z,98074.25
2023-05-01T22:50:18.213Z,98088.63
2023-05-01T22:52:46.931Z,98094.63
2023-05-01T22:55:17.282Z,98094.56
2023-05-01T22:57:45.960Z,98092.06
2023-05-01T23:00:15.159Z,98090.38
2023-05-01T23:02:43.671Z,98089.59
2023-05-01T23:05:12.202Z,98092.16
2023-05-01T23:07:40.864Z,98087.91
2023-05-01T23:10:09.876Z,98095.56
2023-05-01T23:12:42.154Z,98092.94
2023-05-01T23:15:12.353Z,98094.72
2023-05-01T23:17:41.560Z,98099.06
2023-05-01T23:20:14.091Z,98099.13
2023-05-01T23:22:42.340Z,98104.28
2023-05-01T23:25:13.858Z,98093.31
2023-05-01T23:27:44.042Z,98096.75
2023-05-01T23:30:15.028Z,98091.81
2023-05-01T23:32:44.520Z,98103.59
2023-05-01T23:35:14.843Z,98108.78
2023-05-01T23:37:43.958Z,98103.69
2023-05-01T23:40:12.760Z,98094.28
2023-05-01T23:42:41.094Z,98104.53
2023-05-01T23:45:11.610Z,98098.66
2023-05-01T23:47:40.072Z,98103.88
2023-05-01T23:50:09.736Z,98102.25
2023-05-01T23:52:37.924Z,98098.91
2023-05-01T23:55:06.680Z,98101.50
2023-05-01T23:57:35.335Z,98088.03
